Ana Sayfa
METAR-TAF:

METAR-TAF

Havaalanları :

Phillip Goldston

Belize City, Belize

Enlem: 17-32N, Boylam: 088-18W, yükseklik: 5 m

Güncel hava durumu gözlemi

Rapor saat 11:00 UTC de 1 saat ve 6 dakika önce yapıldı.
Rüzgar doğu/güneydoğudan 4 kt
Sıcaklık 26°C
Nem 89%
Basınç 1012 hPa
Görüş mesafesi 10 km veya daha fazla
1900 ft yükseklikte az bulutlu

METAR: MZBZ 171100Z 11004KT 9999 FEW019 26/24 A2989 Q1012 NOSIG

Saat: 06:06 (12:06 UTC)

Tahmin

Rapor saat 10:50 UTC de 1 saat ve 16 dakika önce yapıldı.
Ayın 17'si saat 12 UTC'den ayın 18'si saat 12 UTC'ye kadar geçerli Tahmin
Rüzgar doğudan 8 kt
Görüş mesafesi 10 km veya daha fazla
2400 ft yükseklikte parçalı bulutlu

TAF: MZBZ 171050Z 1712/1812 10008KT 9999 SCT024

4.000'den fazla havaalanı için hava durumu gözlemleri ve tahminleri (METAR ve TAF raporları).

Kullanılabilir istasyonlar harita üzerinde sarı ve kırmızı noktalarla gösterilir.

İstasyonun adını görmek için fareyi noktanın üzerinde gezdirin.

Sonrasında hava gözlem ve tahminlerini görmek için tıklayın.

Haritayı değiştirmek için: yaklaştırmak için siyah artı işaretli yeşil düğmeye ve uzaklaştırmak için de eksi işaretli düğmeye hızla tıklayın; bitişik haritalar için yeşil okları kullanın.


METAR-TAF: